createdAt,value
2023-01-15T00:00:35.776Z,10.68
2023-01-15T00:03:02.408Z,10.67
2023-01-15T00:05:29.144Z,10.66
2023-01-15T00:07:55.785Z,10.63
2023-01-15T00:10:22.431Z,10.63
2023-01-15T00:12:49.066Z,10.66
2023-01-15T00:15:15.717Z,10.66
2023-01-15T00:17:42.368Z,10.59
2023-01-15T00:20:12.480Z,10.60
2023-01-15T00:22:39.117Z,10.59
2023-01-15T00:25:06.166Z,10.47
2023-01-15T00:27:32.812Z,10.46
2023-01-15T00:29:59.454Z,10.46
2023-01-15T00:32:26.094Z,10.38
2023-01-15T00:34:52.702Z,10.28
2023-01-15T00:37:19.331Z,10.25
2023-01-15T00:39:46.425Z,10.32
2023-01-15T00:42:13.098Z,10.30
2023-01-15T00:44:39.785Z,10.27
2023-01-15T00:47:06.426Z,10.19
2023-01-15T00:49:33.110Z,10.30
2023-01-15T00:51:59.783Z,10.27
2023-01-15T00:54:26.485Z,10.33
2023-01-15T00:56:53.144Z,10.20
2023-01-15T00:59:19.806Z,10.16
2023-01-15T01:01:46.579Z,10.15
2023-01-15T01:04:13.268Z,10.09
2023-01-15T01:06:39.908Z,10.15
2023-01-15T01:09:06.533Z,10.12
2023-01-15T01:11:33.212Z,10.06
2023-01-15T01:14:00.282Z,10.03
2023-01-15T01:16:37.156Z,10.07
2023-01-15T01:19:06.956Z,10.02
2023-01-15T01:21:33.670Z,9.92
2023-01-15T01:24:00.554Z,9.95
2023-01-15T01:26:27.985Z,10.00
2023-01-15T01:28:54.756Z,10.06
2023-01-15T01:31:21.583Z,10.09
2023-01-15T01:33:52.305Z,10.09
2023-01-15T01:36:19.113Z,10.06
2023-01-15T01:38:48.632Z,10.06
2023-01-15T01:41:16.316Z,10.07
2023-01-15T01:44:02.548Z,10.06
2023-01-15T01:46:33.732Z,10.11
2023-01-15T01:49:09.544Z,10.07
2023-01-15T01:51:39.538Z,10.05
2023-01-15T01:54:06.219Z,10.07
2023-01-15T01:56:33.077Z,10.17
2023-01-15T01:58:59.701Z,10.16
2023-01-15T02:01:26.430Z,9.83
2023-01-15T02:03:53.185Z,9.79
2023-01-15T02:06:19.852Z,9.46
2023-01-15T02:08:46.534Z,9.35
2023-01-15T02:11:16.279Z,9.54
2023-01-15T02:14:16.903Z,9.24
2023-01-15T02:16:51.357Z,9.37
2023-01-15T02:19:41.301Z,9.47
2023-01-15T02:22:24.852Z,9.50
2023-01-15T02:25:19.254Z,9.57
2023-01-15T02:27:49.325Z,9.57
2023-01-15T02:30:23.445Z,9.65
2023-01-15T02:32:55.351Z,9.70
2023-01-15T02:35:24.589Z,9.65
2023-01-15T02:37:59.559Z,9.66
2023-01-15T02:40:26.412Z,9.59
2023-01-15T02:42:53.249Z,9.58
2023-01-15T02:45:22.001Z,9.65
2023-01-15T02:47:48.665Z,9.69
2023-01-15T02:50:18.714Z,9.65
2023-01-15T02:52:47.262Z,9.63
2023-01-15T02:55:22.833Z,9.70
2023-01-15T02:57:49.488Z,9.76
2023-01-15T03:00:16.443Z,9.69
2023-01-15T03:02:47.036Z,9.65
2023-01-15T03:05:31.558Z,9.75
2023-01-15T03:08:00.165Z,9.60
2023-01-15T03:10:49.084Z,9.54
2023-01-15T03:13:37.147Z,9.58
2023-01-15T03:16:37.035Z,9.44
2023-01-15T03:19:13.013Z,9.39
2023-01-15T03:21:58.366Z,9.29
2023-01-15T03:24:53.235Z,9.08
2023-01-15T03:27:20.386Z,9.23
2023-01-15T03:29:49.634Z,9.33
2023-01-15T03:32:16.812Z,9.37
2023-01-15T03:34:48.265Z,9.50
2023-01-15T03:37:14.907Z,9.44
2023-01-15T03:39:41.556Z,9.35
2023-01-15T03:42:38.360Z,9.31
2023-01-15T03:45:11.049Z,9.38
2023-01-15T03:47:55.919Z,9.43
2023-01-15T03:50:32.206Z,9.46
2023-01-15T03:53:15.581Z,9.53
2023-01-15T03:56:05.315Z,9.50
2023-01-15T03:58:43.968Z,9.66
2023-01-15T04:01:11.649Z,9.62
2023-01-15T04:03:38.511Z,9.59
2023-01-15T04:06:05.245Z,9.62
2023-01-15T04:08:37.792Z,9.67
2023-01-15T04:11:04.671Z,9.68
2023-01-15T04:13:31.757Z,9.41
2023-01-15T04:15:58.579Z,9.13
2023-01-15T04:18:25.591Z,8.94
2023-01-15T04:20:52.266Z,8.89
2023-01-15T04:23:18.925Z,9.00
2023-01-15T04:25:45.583Z,9.08
2023-01-15T04:28:12.233Z,9.09
2023-01-15T04:30:38.896Z,9.00
2023-01-15T04:33:05.626Z,9.11
2023-01-15T04:35:32.264Z,9.18
2023-01-15T04:37:59.220Z,9.23
2023-01-15T04:40:26.060Z,9.34
2023-01-15T04:42:52.700Z,9.39
2023-01-15T04:45:19.339Z,9.13
2023-01-15T04:47:46.041Z,9.09
2023-01-15T04:50:12.763Z,9.19
2023-01-15T04:52:39.392Z,9.25
2023-01-15T04:55:06.145Z,9.30
2023-01-15T04:57:32.866Z,9.41
2023-01-15T04:59:59.540Z,9.41
2023-01-15T05:02:26.360Z,9.46
2023-01-15T05:04:53.090Z,9.33
2023-01-15T05:07:19.746Z,9.03
2023-01-15T05:09:46.400Z,8.94
2023-01-15T05:12:13.038Z,9.04
2023-01-15T05:14:39.692Z,9.06
2023-01-15T05:17:06.317Z,9.09
2023-01-15T05:19:33.223Z,9.09
2023-01-15T05:21:59.857Z,8.74
2023-01-15T05:24:26.513Z,8.22
2023-01-15T05:26:53.195Z,8.03
2023-01-15T05:29:19.993Z,8.22
2023-01-15T05:31:46.620Z,8.26
2023-01-15T05:34:13.299Z,8.09
2023-01-15T05:36:40.449Z,7.90
2023-01-15T05:39:07.288Z,8.15
2023-01-15T05:41:33.945Z,7.94
2023-01-15T05:44:01.794Z,8.01
2023-01-15T05:46:28.458Z,7.89
2023-01-15T05:48:55.114Z,8.03
2023-01-15T05:51:21.763Z,8.34
2023-01-15T05:53:48.840Z,8.49
2023-01-15T05:56:15.473Z,8.64
2023-01-15T05:58:42.104Z,8.86
2023-01-15T06:01:09.610Z,8.92
2023-01-15T06:03:36.363Z,8.70
2023-01-15T06:06:03.198Z,8.94
2023-01-15T06:08:29.858Z,9.05
2023-01-15T06:10:57.069Z,9.10
2023-01-15T06:13:23.710Z,9.01
2023-01-15T06:15:50.372Z,9.19
2023-01-15T06:18:17.156Z,9.28
2023-01-15T06:20:43.770Z,9.44
2023-01-15T06:23:10.406Z,9.11
2023-01-15T06:25:37.114Z,8.78
2023-01-15T06:28:07.703Z,8.98
2023-01-15T06:30:34.431Z,8.90
2023-01-15T06:33:01.194Z,9.12
2023-01-15T06:35:28.291Z,9.21
2023-01-15T06:37:55.037Z,9.37
2023-01-15T06:40:21.681Z,9.51
2023-01-15T06:42:48.603Z,9.74
2023-01-15T06:45:15.245Z,9.84
2023-01-15T06:47:42.259Z,9.88
2023-01-15T06:50:09.743Z,10.00
2023-01-15T06:52:36.756Z,9.86
2023-01-15T06:55:03.408Z,9.83
2023-01-15T06:57:30.216Z,9.84
2023-01-15T06:59:56.852Z,9.78
2023-01-15T07:02:23.487Z,9.94
2023-01-15T07:04:50.499Z,10.22
2023-01-15T07:07:17.827Z,10.43
2023-01-15T07:09:44.497Z,10.59
2023-01-15T07:12:11.143Z,10.64
2023-01-15T07:14:37.764Z,10.31
2023-01-15T07:17:04.397Z,10.07
2023-01-15T07:19:31.273Z,10.23
2023-01-15T07:21:57.957Z,10.38
2023-01-15T07:24:24.646Z,10.49
2023-01-15T07:26:51.288Z,10.55
2023-01-15T07:29:18.107Z,10.47
2023-01-15T07:31:44.928Z,10.59
2023-01-15T07:34:11.650Z,10.55
2023-01-15T07:36:38.262Z,10.63
2023-01-15T07:39:05.580Z,10.48
2023-01-15T07:41:32.205Z,10.48
2023-01-15T07:43:58.969Z,10.61
2023-01-15T07:46:25.612Z,10.56
2023-01-15T07:48:52.269Z,10.65
2023-01-15T07:51:18.923Z,10.57
2023-01-15T07:53:45.594Z,10.65
2023-01-15T07:56:12.219Z,10.68
2023-01-15T07:58:38.844Z,10.77
2023-01-15T08:01:05.560Z,10.82
2023-01-15T08:03:32.399Z,10.73
2023-01-15T08:05:59.061Z,10.79
2023-01-15T08:08:25.692Z,10.74
2023-01-15T08:10:52.351Z,10.68
2023-01-15T08:13:19.244Z,10.71
2023-01-15T08:15:45.888Z,10.74
2023-01-15T08:18:12.526Z,10.84
2023-01-15T08:20:39.314Z,10.76
2023-01-15T08:23:05.927Z,10.73
2023-01-15T08:25:32.563Z,10.69
2023-01-15T08:28:01.415Z,10.32
2023-01-15T08:30:28.060Z,10.54
2023-01-15T08:32:59.264Z,10.64
2023-01-15T08:35:25.979Z,10.56
2023-01-15T08:37:52.589Z,10.68
2023-01-15T08:40:19.350Z,10.77
2023-01-15T08:42:49.472Z,10.77
2023-01-15T08:45:16.097Z,10.76
2023-01-15T08:47:42.762Z,10.77
2023-01-15T08:50:09.963Z,10.66
2023-01-15T08:52:37.086Z,10.61
2023-01-15T08:55:03.847Z,10.40
2023-01-15T08:57:30.521Z,10.44
2023-01-15T08:59:57.168Z,10.29
2023-01-15T09:02:23.798Z,10.30
2023-01-15T09:04:50.467Z,10.29
2023-01-15T09:07:17.156Z,10.33
2023-01-15T09:09:43.850Z,10.16
2023-01-15T09:12:10.608Z,10.10
2023-01-15T09:14:58.155Z,10.05
2023-01-15T09:17:23.843Z,9.81
2023-01-15T09:19:51.866Z,9.68
2023-01-15T09:22:18.529Z,9.61
2023-01-15T09:24:45.584Z,9.55
2023-01-15T09:27:12.362Z,9.43
2023-01-15T09:29:39.149Z,9.40
2023-01-15T09:32:05.761Z,9.40
2023-01-15T09:34:32.405Z,9.29
2023-01-15T09:36:59.046Z,9.21
2023-01-15T09:39:25.671Z,9.21
2023-01-15T09:42:00.836Z,9.29
2023-01-15T09:44:40.400Z,9.30
2023-01-15T09:47:21.143Z,9.29
2023-01-15T09:49:54.218Z,9.25
2023-01-15T09:52:48.383Z,9.28
2023-01-15T09:55:24.719Z,9.32
2023-01-15T09:57:54.025Z,9.34
2023-01-15T10:00:24.759Z,9.28
2023-01-15T10:03:00.063Z,9.24
2023-01-15T10:05:30.691Z,9.22
2023-01-15T10:08:04.679Z,9.23
2023-01-15T10:10:42.415Z,9.23
2023-01-15T10:13:21.850Z,9.12
2023-01-15T10:15:48.625Z,9.08
2023-01-15T10:18:20.267Z,9.09
2023-01-15T10:21:04.741Z,8.96
2023-01-15T10:24:01.026Z,8.95
2023-01-15T10:26:35.818Z,8.92
2023-01-15T10:29:36.931Z,8.80
2023-01-15T10:32:12.057Z,8.81
2023-01-15T10:34:56.118Z,8.80
2023-01-15T10:37:22.632Z,8.85
2023-01-15T10:40:00.811Z,8.98
2023-01-15T10:42:39.475Z,8.98
2023-01-15T10:45:36.554Z,8.99
2023-01-15T10:48:07.182Z,8.98
2023-01-15T10:50:33.809Z,8.94
2023-01-15T10:53:02.785Z,8.94
2023-01-15T10:55:35.083Z,9.04
2023-01-15T10:58:14.821Z,8.96
2023-01-15T11:00:41.489Z,8.90
2023-01-15T11:03:13.267Z,8.88
2023-01-15T11:05:39.930Z,8.96
2023-01-15T11:08:54.867Z,8.93
2023-01-15T11:11:34.092Z,8.95
2023-01-15T11:14:00.917Z,8.82
2023-01-15T11:16:27.657Z,8.84
2023-01-15T11:18:57.487Z,8.87
2023-01-15T11:21:24.131Z,8.89
2023-01-15T11:23:51.196Z,8.84
2023-01-15T11:26:28.127Z,8.69
2023-01-15T11:28:54.850Z,8.64
2023-01-15T11:31:21.791Z,8.64
2023-01-15T11:34:02.264Z,8.60
2023-01-15T11:36:29.757Z,8.61
2023-01-15T11:38:56.433Z,8.62
2023-01-15T11:41:33.441Z,8.47
2023-01-15T11:44:00.112Z,8.48
2023-01-15T11:46:31.242Z,8.43
2023-01-15T11:48:57.964Z,8.44
2023-01-15T11:51:24.582Z,8.41
2023-01-15T11:53:52.180Z,8.37
2023-01-15T11:56:20.787Z,8.46
2023-01-15T11:58:53.119Z,8.34
2023-01-15T12:01:33.351Z,8.33
2023-01-15T12:04:01.621Z,8.29
2023-01-15T12:06:28.337Z,8.28
2023-01-15T12:09:10.601Z,8.23
2023-01-15T12:11:51.278Z,8.20
2023-01-15T12:14:30.149Z,8.28
2023-01-15T12:17:24.300Z,8.12
2023-01-15T12:20:42.043Z,8.11
2023-01-15T12:23:26.441Z,8.00
2023-01-15T12:26:01.932Z,7.94
2023-01-15T12:28:30.134Z,7.85
2023-01-15T12:31:11.706Z,7.79
2023-01-15T12:34:10.702Z,7.78
2023-01-15T12:36:40.139Z,7.77
2023-01-15T12:39:21.941Z,7.83
2023-01-15T12:41:53.044Z,7.82
2023-01-15T12:44:44.197Z,7.84
2023-01-15T12:47:13.272Z,7.85
2023-01-15T12:49:51.486Z,7.85
2023-01-15T12:52:19.901Z,7.88
2023-01-15T12:54:54.604Z,7.82
2023-01-15T12:57:35.077Z,7.80
2023-01-15T13:00:06.753Z,7.80
2023-01-15T13:02:43.491Z,7.71
2023-01-15T13:05:18.178Z,7.60
2023-01-15T13:07:59.841Z,7.61
2023-01-15T13:10:27.261Z,7.58
2023-01-15T13:12:54.305Z,7.59
2023-01-15T13:15:21.991Z,7.55
2023-01-15T13:18:39.644Z,7.48
2023-01-15T13:21:13.397Z,7.38
2023-01-15T13:23:48.914Z,7.40
2023-01-15T13:26:21.586Z,7.45
2023-01-15T13:29:10.149Z,7.43
2023-01-15T13:32:14.203Z,7.30
2023-01-15T13:34:47.778Z,7.29
2023-01-15T13:37:22.379Z,7.37
2023-01-15T13:39:49.319Z,7.37
2023-01-15T13:42:23.408Z,7.46
2023-01-15T13:44:53.612Z,7.45
2023-01-15T13:47:22.900Z,7.49
2023-01-15T13:49:54.973Z,7.40
2023-01-15T13:52:39.696Z,7.21
2023-01-15T13:55:36.813Z,6.60
2023-01-15T13:58:03.443Z,6.62
2023-01-15T14:00:36.568Z,6.71
2023-01-15T14:03:24.265Z,6.33
2023-01-15T14:06:04.032Z,6.04
2023-01-15T14:08:44.259Z,6.27
2023-01-15T14:11:41.841Z,6.45
2023-01-15T14:14:29.815Z,6.61
2023-01-15T14:17:04.229Z,6.69
2023-01-15T14:19:57.884Z,6.82
2023-01-15T14:22:30.712Z,6.91
2023-01-15T14:25:37.460Z,6.99
2023-01-15T14:28:23.089Z,7.14
2023-01-15T14:31:04.840Z,7.21
2023-01-15T14:33:43.873Z,7.21
2023-01-15T14:36:24.323Z,7.31
2023-01-15T14:38:53.557Z,7.38
2023-01-15T14:41:30.252Z,7.53
2023-01-15T14:43:57.603Z,7.53
2023-01-15T14:46:31.816Z,7.49
2023-01-15T14:48:58.556Z,7.49
2023-01-15T14:51:45.607Z,7.52
2023-01-15T14:54:15.315Z,7.52
2023-01-15T14:56:45.268Z,7.63
2023-01-15T14:59:26.888Z,7.55
2023-01-15T15:02:15.619Z,7.56
2023-01-15T15:04:55.135Z,7.53
2023-01-15T15:07:23.186Z,7.64
2023-01-15T15:09:58.768Z,7.56
2023-01-15T15:12:44.108Z,7.58
2023-01-15T15:15:25.905Z,7.58
2023-01-15T15:17:55.313Z,7.58
2023-01-15T15:20:31.884Z,7.56
2023-01-15T15:23:05.029Z,7.53
2023-01-15T15:25:33.759Z,7.56
2023-01-15T15:28:05.207Z,7.53
2023-01-15T15:30:36.078Z,7.56
2023-01-15T15:33:05.681Z,7.64
2023-01-15T15:35:32.317Z,7.65
2023-01-15T15:38:04.830Z,7.56
2023-01-15T15:40:36.600Z,7.60
2023-01-15T15:43:13.014Z,7.55
2023-01-15T15:45:39.674Z,7.47
2023-01-15T15:48:23.253Z,7.26
2023-01-15T15:50:50.291Z,7.10
2023-01-15T15:53:17.329Z,6.94
2023-01-15T15:55:44.176Z,7.00
2023-01-15T15:58:32.266Z,7.02
2023-01-15T16:00:59.005Z,7.03
2023-01-15T16:03:27.727Z,7.10
2023-01-15T16:06:02.382Z,7.16
2023-01-15T16:08:30.091Z,7.16
2023-01-15T16:11:01.214Z,7.13
2023-01-15T16:13:34.131Z,7.13
2023-01-15T16:16:01.237Z,7.08
2023-01-15T16:18:42.239Z,7.12
2023-01-15T16:21:08.971Z,7.04
2023-01-15T16:23:35.626Z,7.09
2023-01-15T16:26:02.106Z,7.13
2023-01-15T16:28:36.548Z,7.01
2023-01-15T16:31:03.319Z,7.10
2023-01-15T16:33:30.014Z,7.02
2023-01-15T16:35:57.579Z,6.94
2023-01-15T16:38:24.261Z,6.96
2023-01-15T16:40:50.892Z,6.97
2023-01-15T16:43:19.234Z,7.03
2023-01-15T16:45:54.878Z,6.95
2023-01-15T16:48:21.399Z,6.91
2023-01-15T16:50:48.708Z,6.84
2023-01-15T16:53:36.764Z,6.92
2023-01-15T16:56:03.521Z,6.93
2023-01-15T16:58:37.892Z,6.96
2023-01-15T17:01:42.604Z,6.93
2023-01-15T17:04:39.064Z,6.90
2023-01-15T17:07:18.424Z,6.99
2023-01-15T17:09:47.708Z,7.05
2023-01-15T17:12:40.659Z,6.92
2023-01-15T17:15:16.558Z,6.97
2023-01-15T17:17:47.187Z,6.99
2023-01-15T17:20:14.127Z,6.97
2023-01-15T17:22:41.796Z,6.88
2023-01-15T17:25:27.798Z,6.82
2023-01-15T17:27:54.507Z,6.81
2023-01-15T17:30:21.289Z,6.87
2023-01-15T17:32:48.287Z,6.86
2023-01-15T17:35:27.820Z,6.77
2023-01-15T17:37:54.496Z,6.91
2023-01-15T17:40:21.114Z,6.80
2023-01-15T17:42:48.429Z,6.62
2023-01-15T17:45:20.177Z,6.59
2023-01-15T17:47:46.805Z,6.60
2023-01-15T17:50:13.831Z,6.59
2023-01-15T17:52:40.761Z,6.63
2023-01-15T17:55:07.826Z,6.55
2023-01-15T17:57:34.442Z,6.57
2023-01-15T18:00:01.071Z,6.60
2023-01-15T18:02:27.731Z,6.59
2023-01-15T18:04:54.476Z,6.53
2023-01-15T18:07:22.050Z,6.54
2023-01-15T18:09:48.694Z,6.53
2023-01-15T18:12:15.337Z,6.48
2023-01-15T18:14:41.982Z,6.43
2023-01-15T18:17:08.632Z,6.41
2023-01-15T18:19:35.255Z,6.37
2023-01-15T18:22:01.903Z,6.33
2023-01-15T18:24:28.592Z,6.31
2023-01-15T18:26:55.273Z,6.33
2023-01-15T18:29:22.076Z,6.22
2023-01-15T18:31:48.764Z,6.11
2023-01-15T18:34:15.472Z,6.10
2023-01-15T18:36:42.145Z,5.98
2023-01-15T18:39:08.906Z,6.00
2023-01-15T18:41:35.720Z,5.92
2023-01-15T18:44:13.307Z,5.85
2023-01-15T18:46:39.995Z,5.91
2023-01-15T18:49:06.690Z,5.94
2023-01-15T18:51:33.338Z,5.93
2023-01-15T18:53:59.984Z,5.91
2023-01-15T18:56:26.729Z,5.90
2023-01-15T18:58:55.911Z,5.93
2023-01-15T19:01:23.270Z,5.89
2023-01-15T19:03:49.979Z,5.94
2023-01-15T19:06:16.735Z,5.88
2023-01-15T19:08:43.377Z,5.92
2023-01-15T19:11:13.720Z,5.93
2023-01-15T19:13:40.424Z,5.90
2023-01-15T19:16:07.408Z,5.93
2023-01-15T19:18:34.142Z,5.93
2023-01-15T19:21:06.223Z,5.80
2023-01-15T19:23:32.861Z,5.77
2023-01-15T19:25:59.529Z,5.63
2023-01-15T19:28:26.177Z,5.53
2023-01-15T19:30:52.813Z,5.44
2023-01-15T19:33:19.440Z,5.23
2023-01-15T19:35:46.094Z,5.07
2023-01-15T19:38:12.736Z,5.03
2023-01-15T19:40:40.327Z,5.07
2023-01-15T19:43:07.027Z,5.09
2023-01-15T19:45:33.661Z,5.19
2023-01-15T19:48:00.281Z,5.25
2023-01-15T19:50:33.071Z,5.14
2023-01-15T19:52:59.727Z,5.17
2023-01-15T19:55:28.012Z,5.17
2023-01-15T19:57:59.389Z,5.26
2023-01-15T20:00:26.227Z,5.27
2023-01-15T20:02:52.887Z,5.21
2023-01-15T20:05:19.703Z,5.25
2023-01-15T20:07:46.339Z,5.28
2023-01-15T20:10:14.847Z,5.24
2023-01-15T20:12:41.541Z,5.26
2023-01-15T20:15:08.467Z,5.22
2023-01-15T20:17:35.146Z,5.19
2023-01-15T20:20:02.012Z,5.22
2023-01-15T20:22:29.933Z,5.16
2023-01-15T20:24:56.581Z,5.07
2023-01-15T20:27:23.221Z,5.07
2023-01-15T20:29:49.859Z,4.92
2023-01-15T20:32:16.488Z,4.82
2023-01-15T20:34:43.140Z,4.72
2023-01-15T20:37:09.783Z,4.63
2023-01-15T20:39:36.403Z,4.59
2023-01-15T20:42:03.038Z,4.60
2023-01-15T20:44:29.670Z,4.61
2023-01-15T20:46:56.336Z,4.58
2023-01-15T20:49:22.985Z,4.55
2023-01-15T20:51:49.635Z,4.50
2023-01-15T20:54:16.297Z,4.48
2023-01-15T20:56:43.330Z,4.43
2023-01-15T20:59:09.970Z,4.44
2023-01-15T21:01:37.420Z,4.46
2023-01-15T21:04:04.174Z,4.41
2023-01-15T21:06:30.860Z,4.39
2023-01-15T21:08:57.507Z,4.31
2023-01-15T21:11:24.160Z,4.32
2023-01-15T21:13:50.803Z,4.38
2023-01-15T21:16:17.444Z,4.31
2023-01-15T21:18:44.116Z,4.20
2023-01-15T21:21:11.147Z,4.23
2023-01-15T21:23:37.920Z,4.24
2023-01-15T21:26:04.742Z,4.29
2023-01-15T21:28:31.996Z,4.35
2023-01-15T21:30:58.637Z,4.40
2023-01-15T21:33:25.511Z,4.38
2023-01-15T21:35:52.164Z,4.43
2023-01-15T21:38:18.775Z,4.42
2023-01-15T21:40:46.088Z,4.52
2023-01-15T21:43:12.709Z,4.57
2023-01-15T21:45:39.652Z,4.40
2023-01-15T21:48:06.347Z,4.35
2023-01-15T21:50:33.037Z,4.38
2023-01-15T21:52:59.692Z,4.43
2023-01-15T21:55:26.381Z,4.35
2023-01-15T21:57:53.049Z,4.46
2023-01-15T22:00:19.772Z,4.49
2023-01-15T22:02:47.147Z,4.51
2023-01-15T22:05:13.958Z,4.59
2023-01-15T22:07:40.625Z,4.56
2023-01-15T22:10:07.718Z,4.42
2023-01-15T22:12:34.344Z,4.42
2023-01-15T22:15:01.037Z,4.41
2023-01-15T22:17:27.688Z,4.48
2023-01-15T22:19:54.334Z,4.41
2023-01-15T22:22:20.996Z,4.43
2023-01-15T22:24:47.654Z,4.47
2023-01-15T22:27:15.538Z,4.57
2023-01-15T22:29:42.237Z,4.55
2023-01-15T22:32:10.466Z,4.47
2023-01-15T22:34:37.149Z,4.40
2023-01-15T22:37:03.856Z,4.44
2023-01-15T22:39:30.506Z,4.46
2023-01-15T22:41:57.175Z,4.44
2023-01-15T22:44:23.870Z,4.47
2023-01-15T22:46:50.523Z,4.51
2023-01-15T22:49:17.409Z,4.53
2023-01-15T22:51:44.081Z,4.52
2023-01-15T22:54:10.907Z,4.65
2023-01-15T22:56:37.767Z,4.61
2023-01-15T22:59:04.943Z,4.55
2023-01-15T23:01:31.678Z,4.48
2023-01-15T23:03:58.388Z,4.52
2023-01-15T23:06:25.184Z,4.59
2023-01-15T23:08:56.408Z,4.62
2023-01-15T23:11:23.167Z,4.41
2023-01-15T23:13:51.110Z,4.35
2023-01-15T23:16:17.857Z,4.30
2023-01-15T23:18:44.514Z,4.35
2023-01-15T23:21:12.606Z,4.55
2023-01-15T23:23:39.364Z,4.53
2023-01-15T23:26:07.037Z,4.55
2023-01-15T23:28:33.822Z,4.61
2023-01-15T23:31:00.486Z,4.45
2023-01-15T23:33:27.186Z,4.41
2023-01-15T23:35:53.867Z,4.47
2023-01-15T23:38:20.819Z,4.51
2023-01-15T23:40:47.567Z,4.51
2023-01-15T23:43:14.919Z,4.48
2023-01-15T23:45:41.570Z,4.37
2023-01-15T23:48:08.216Z,4.41
2023-01-15T23:50:34.859Z,4.17
2023-01-15T23:53:01.496Z,4.21
2023-01-15T23:55:28.173Z,4.26
2023-01-15T23:57:55.248Z,4.34
